createdAt,value
2023-03-27T00:00:07.928Z,82
2023-03-27T00:04:01.370Z,82
2023-03-27T00:08:01.486Z,82
2023-03-27T00:12:02.188Z,82
2023-03-27T00:16:01.950Z,82
2023-03-27T00:20:04.558Z,82
2023-03-27T00:24:01.297Z,82
2023-03-27T00:28:01.824Z,82
2023-03-27T00:32:01.263Z,82
2023-03-27T00:36:01.179Z,82
2023-03-27T00:40:01.083Z,82
2023-03-27T00:44:03.782Z,82
2023-03-27T00:48:02.844Z,82
2023-03-27T00:52:02.227Z,82
2023-03-27T00:56:03.713Z,82
2023-03-27T01:00:01.576Z,82
2023-03-27T01:04:02.498Z,82
2023-03-27T01:08:02.100Z,82
2023-03-27T01:12:08.231Z,82
2023-03-27T01:16:03.558Z,82
2023-03-27T01:20:13.148Z,82
2023-03-27T01:24:10.689Z,82
2023-03-27T01:28:10.790Z,82
2023-03-27T01:32:10.808Z,82
2023-03-27T01:36:07.780Z,82
2023-03-27T01:40:04.560Z,82
2023-03-27T01:44:03.057Z,82
2023-03-27T01:48:03.923Z,82
2023-03-27T01:52:02.555Z,82
2023-03-27T01:56:05.015Z,82
2023-03-27T02:00:19.561Z,83
2023-03-27T02:04:02.177Z,83
2023-03-27T02:08:04.911Z,83
2023-03-27T02:12:03.284Z,83
2023-03-27T02:16:02.645Z,83
2023-03-27T02:20:13.859Z,83
2023-03-27T02:24:01.097Z,83
2023-03-27T02:28:10.870Z,83
2023-03-27T02:32:06.981Z,83
2023-03-27T02:36:06.065Z,83
2023-03-27T02:40:09.508Z,83
2023-03-27T02:44:03.971Z,83
2023-03-27T02:48:05.584Z,83
2023-03-27T02:52:02.885Z,83
2023-03-27T02:56:02.645Z,83
2023-03-27T03:00:06.524Z,84
2023-03-27T03:04:02.720Z,84
2023-03-27T03:08:01.217Z,84
2023-03-27T03:12:01.051Z,83
2023-03-27T03:16:01.115Z,83
2023-03-27T03:20:01.223Z,84
2023-03-27T03:24:01.067Z,84
2023-03-27T03:28:01.128Z,84
2023-03-27T03:32:01.284Z,84
2023-03-27T03:36:01.226Z,84
2023-03-27T03:40:01.223Z,84
2023-03-27T03:44:01.063Z,84
2023-03-27T03:48:01.097Z,84
2023-03-27T03:52:04.919Z,84
2023-03-27T03:56:01.124Z,84
2023-03-27T04:00:01.431Z,84
2023-03-27T04:04:01.378Z,84
2023-03-27T04:08:01.888Z,84
2023-03-27T04:12:01.049Z,84
2023-03-27T04:16:01.029Z,84
2023-03-27T04:20:01.352Z,84
2023-03-27T04:24:01.722Z,84
2023-03-27T04:28:01.340Z,84
2023-03-27T04:32:01.393Z,84
2023-03-27T04:36:07.915Z,84
2023-03-27T04:40:02.590Z,84
2023-03-27T04:44:00.875Z,84
2023-03-27T04:48:00.846Z,84
2023-03-27T04:52:01.147Z,84
2023-03-27T04:56:00.852Z,84
2023-03-27T05:00:01.290Z,84
2023-03-27T05:04:01.560Z,84
2023-03-27T05:08:00.887Z,84
2023-03-27T05:12:00.871Z,84
2023-03-27T05:16:01.001Z,84
2023-03-27T05:20:00.934Z,84
2023-03-27T05:24:00.748Z,84
2023-03-27T05:28:01.149Z,84
2023-03-27T05:32:01.691Z,84
2023-03-27T05:36:02.335Z,84
2023-03-27T05:40:01.001Z,84
2023-03-27T05:44:01.360Z,84
2023-03-27T05:48:01.949Z,85
2023-03-27T05:52:00.973Z,85
2023-03-27T05:56:03.617Z,85
2023-03-27T06:00:00.823Z,85
2023-03-27T06:04:01.061Z,85
2023-03-27T06:08:01.356Z,86
2023-03-27T06:12:00.847Z,86
2023-03-27T06:16:01.236Z,86
2023-03-27T06:20:01.975Z,86
2023-03-27T06:24:00.899Z,86
2023-03-27T06:28:01.597Z,87
2023-03-27T06:32:01.061Z,87
2023-03-27T06:36:01.416Z,87
2023-03-27T06:40:01.165Z,88
2023-03-27T06:44:00.739Z,88
2023-03-27T06:48:20.268Z,89
2023-03-27T06:52:00.879Z,89
2023-03-27T06:56:01.471Z,89
2023-03-27T07:00:02.960Z,89
2023-03-27T07:04:00.791Z,89
2023-03-27T07:08:18.901Z,89
2023-03-27T07:12:00.842Z,89
2023-03-27T07:16:00.968Z,89
2023-03-27T07:20:03.049Z,89
2023-03-27T07:24:00.761Z,89
2023-03-27T07:28:00.876Z,88
2023-03-27T07:32:08.780Z,88
2023-03-27T07:36:05.721Z,88
2023-03-27T07:40:00.879Z,86
2023-03-27T07:44:00.801Z,86
2023-03-27T07:48:04.341Z,85
2023-03-27T07:52:00.866Z,85
2023-03-27T07:56:01.389Z,85
2023-03-27T08:00:00.692Z,84
2023-03-27T08:04:01.158Z,84
2023-03-27T08:08:00.721Z,83
2023-03-27T08:12:01.107Z,83
2023-03-27T08:16:01.839Z,83
2023-03-27T08:20:08.122Z,82
2023-03-27T08:24:03.761Z,82
2023-03-27T08:28:01.758Z,80
2023-03-27T08:32:01.841Z,80
2023-03-27T08:36:01.166Z,80
2023-03-27T08:40:01.102Z,78
2023-03-27T08:44:02.885Z,78
2023-03-27T08:48:03.990Z,75
2023-03-27T08:52:03.021Z,75
2023-03-27T08:56:02.338Z,75
2023-03-27T09:00:04.377Z,75
2023-03-27T09:04:05.235Z,75
2023-03-27T09:08:04.261Z,71
2023-03-27T09:12:03.817Z,71
2023-03-27T09:16:02.501Z,71
2023-03-27T09:20:05.550Z,68
2023-03-27T09:24:01.503Z,68
2023-03-27T09:28:02.495Z,68
2023-03-27T09:32:00.694Z,68
2023-03-27T09:36:01.505Z,68
2023-03-27T09:40:01.247Z,67
2023-03-27T09:44:02.760Z,67
2023-03-27T09:48:01.699Z,67
2023-03-27T09:52:01.970Z,67
2023-03-27T09:56:03.572Z,67
2023-03-27T10:00:08.379Z,66
2023-03-27T10:04:09.702Z,66
2023-03-27T10:08:01.515Z,65
2023-03-27T10:12:03.905Z,65
2023-03-27T10:16:03.700Z,65
2023-03-27T10:20:03.763Z,65
2023-03-27T10:24:03.282Z,65
2023-03-27T10:28:10.853Z,65
2023-03-27T10:32:03.374Z,65
2023-03-27T10:36:00.924Z,65
2023-03-27T10:40:02.045Z,63
2023-03-27T10:44:04.096Z,63
2023-03-27T10:48:01.093Z,61
2023-03-27T10:52:08.395Z,61
2023-03-27T10:56:04.951Z,61
2023-03-27T11:00:09.806Z,59
2023-03-27T11:04:03.720Z,59
2023-03-27T11:08:03.124Z,58
2023-03-27T11:12:03.473Z,58
2023-03-27T11:16:08.267Z,58
2023-03-27T11:20:06.262Z,58
2023-03-27T11:24:02.932Z,58
2023-03-27T11:28:06.179Z,57
2023-03-27T11:32:05.169Z,57
2023-03-27T11:36:10.774Z,57
2023-03-27T11:40:04.267Z,57
2023-03-27T11:44:00.883Z,57
2023-03-27T11:48:10.955Z,55
2023-03-27T11:52:08.417Z,55
2023-03-27T11:56:08.743Z,55
2023-03-27T12:00:07.047Z,56
2023-03-27T12:04:08.371Z,56
2023-03-27T12:08:07.179Z,53
2023-03-27T12:12:10.057Z,53
2023-03-27T12:16:08.285Z,53
2023-03-27T12:20:10.103Z,52
2023-03-27T12:24:10.948Z,52
2023-03-27T12:28:05.851Z,53
2023-03-27T12:32:07.149Z,53
2023-03-27T12:36:04.699Z,53
2023-03-27T12:40:00.862Z,52
2023-03-27T12:44:02.602Z,52
2023-03-27T12:48:05.629Z,52
2023-03-27T12:52:03.970Z,52
2023-03-27T12:56:11.477Z,52
2023-03-27T13:00:09.451Z,50
2023-03-27T13:04:10.477Z,50
2023-03-27T13:08:08.460Z,50
2023-03-27T13:12:07.471Z,50
2023-03-27T13:16:10.928Z,50
2023-03-27T13:20:08.041Z,48
2023-03-27T13:24:09.033Z,48
2023-03-27T13:28:10.570Z,50
2023-03-27T13:32:01.987Z,50
2023-03-27T13:36:04.139Z,50
2023-03-27T13:40:06.863Z,51
2023-03-27T13:44:01.695Z,51
2023-03-27T13:48:09.075Z,48
2023-03-27T13:52:10.849Z,48
2023-03-27T13:56:10.381Z,48
2023-03-27T14:00:10.961Z,48
2023-03-27T14:04:10.160Z,48
2023-03-27T14:08:09.657Z,47
2023-03-27T14:12:06.379Z,47
2023-03-27T14:16:10.435Z,47
2023-03-27T14:20:10.411Z,47
2023-03-27T14:24:03.745Z,47
2023-03-27T14:28:01.473Z,48
2023-03-27T14:32:01.228Z,48
2023-03-27T14:36:03.010Z,48
2023-03-27T14:40:06.311Z,46
2023-03-27T14:44:03.580Z,46
2023-03-27T14:48:02.456Z,46
2023-03-27T14:52:03.051Z,46
2023-03-27T14:56:03.545Z,46
2023-03-27T15:00:05.797Z,46
2023-03-27T15:04:02.008Z,46
2023-03-27T15:08:00.800Z,47
2023-03-27T15:12:01.145Z,47
2023-03-27T15:16:02.310Z,47
2023-03-27T15:20:09.272Z,45
2023-03-27T15:24:04.823Z,45
2023-03-27T15:28:07.791Z,47
2023-03-27T15:32:07.837Z,47
2023-03-27T15:36:02.936Z,47
2023-03-27T15:40:08.166Z,46
2023-03-27T15:44:01.081Z,46
2023-03-27T15:48:01.985Z,45
2023-03-27T15:52:13.805Z,45
2023-03-27T15:56:02.876Z,45
2023-03-27T16:00:02.024Z,47
2023-03-27T16:04:05.625Z,47
2023-03-27T16:08:00.669Z,47
2023-03-27T16:12:01.039Z,47
2023-03-27T16:16:02.998Z,47
2023-03-27T16:20:05.446Z,47
2023-03-27T16:24:00.718Z,47
2023-03-27T16:28:01.313Z,47
2023-03-27T16:32:00.790Z,47
2023-03-27T16:36:02.137Z,47
2023-03-27T16:40:01.034Z,50
2023-03-27T16:44:00.916Z,50
2023-03-27T16:48:00.788Z,50
2023-03-27T16:52:01.165Z,50
2023-03-27T16:56:00.778Z,50
2023-03-27T17:00:00.754Z,52
2023-03-27T17:04:00.832Z,52
2023-03-27T17:08:01.059Z,53
2023-03-27T17:12:01.135Z,53
2023-03-27T17:16:01.242Z,53
2023-03-27T17:20:01.091Z,54
2023-03-27T17:24:01.313Z,54
2023-03-27T17:28:00.820Z,54
2023-03-27T17:32:01.206Z,54
2023-03-27T17:36:05.969Z,54
2023-03-27T17:40:00.890Z,53
2023-03-27T17:44:00.814Z,53
2023-03-27T17:48:00.783Z,54
2023-03-27T17:52:06.805Z,54
2023-03-27T17:56:01.180Z,54
2023-03-27T18:00:00.745Z,54
2023-03-27T18:04:01.244Z,54
2023-03-27T18:08:00.915Z,53
2023-03-27T18:12:00.817Z,53
2023-03-27T18:16:05.125Z,53
2023-03-27T18:20:00.858Z,53
2023-03-27T18:24:00.685Z,53
2023-03-27T18:28:00.733Z,53
2023-03-27T18:32:00.825Z,53
2023-03-27T18:36:01.470Z,53
2023-03-27T18:40:00.748Z,54
2023-03-27T18:44:00.696Z,54
2023-03-27T18:48:00.913Z,55
2023-03-27T18:52:00.848Z,55
2023-03-27T18:56:02.312Z,55
2023-03-27T19:00:01.130Z,55
2023-03-27T19:04:01.507Z,55
2023-03-27T19:08:00.745Z,56
2023-03-27T19:12:00.925Z,56
2023-03-27T19:16:00.809Z,56
2023-03-27T19:20:00.716Z,57
2023-03-27T19:24:00.878Z,57
2023-03-27T19:28:01.228Z,58
2023-03-27T19:32:00.748Z,58
2023-03-27T19:36:00.928Z,58
2023-03-27T19:40:00.847Z,58
2023-03-27T19:44:00.833Z,58
2023-03-27T19:48:00.944Z,59
2023-03-27T19:52:00.857Z,59
2023-03-27T19:56:00.779Z,59
2023-03-27T20:00:00.764Z,59
2023-03-27T20:04:00.921Z,59
2023-03-27T20:08:00.675Z,59
2023-03-27T20:12:01.215Z,59
2023-03-27T20:16:01.993Z,59
2023-03-27T20:20:00.624Z,58
2023-03-27T20:24:01.490Z,58
2023-03-27T20:28:01.312Z,59
2023-03-27T20:32:00.668Z,59
2023-03-27T20:36:01.534Z,59
2023-03-27T20:40:06.349Z,59
2023-03-27T20:44:01.865Z,59
2023-03-27T20:48:02.369Z,60
2023-03-27T20:52:02.717Z,60
2023-03-27T20:56:01.596Z,60
2023-03-27T21:00:00.795Z,60
2023-03-27T21:04:01.281Z,60
2023-03-27T21:08:00.630Z,60
2023-03-27T21:12:00.800Z,60
2023-03-27T21:16:02.421Z,60
2023-03-27T21:20:00.802Z,61
2023-03-27T21:24:00.895Z,61
2023-03-27T21:28:00.765Z,61
2023-03-27T21:32:00.865Z,61
2023-03-27T21:36:01.562Z,61
2023-03-27T21:40:00.872Z,62
2023-03-27T21:44:00.775Z,62
2023-03-27T21:48:01.002Z,64
2023-03-27T21:52:00.754Z,64
2023-03-27T21:56:01.383Z,64
2023-03-27T22:00:00.934Z,64
2023-03-27T22:04:01.249Z,64
2023-03-27T22:08:00.654Z,64
2023-03-27T22:12:00.838Z,64
2023-03-27T22:16:01.397Z,64
2023-03-27T22:20:00.735Z,65
2023-03-27T22:24:01.136Z,65
2023-03-27T22:28:02.094Z,65
2023-03-27T22:32:01.358Z,65
2023-03-27T22:36:01.316Z,65
2023-03-27T22:40:00.908Z,65
2023-03-27T22:44:00.927Z,65
2023-03-27T22:48:00.958Z,66
2023-03-27T22:52:00.792Z,66
2023-03-27T22:56:01.927Z,66
2023-03-27T23:00:00.782Z,67
2023-03-27T23:04:01.283Z,67
2023-03-27T23:08:00.656Z,67
2023-03-27T23:12:00.725Z,67
2023-03-27T23:16:01.606Z,67
2023-03-27T23:20:00.786Z,66
2023-03-27T23:24:00.749Z,66
2023-03-27T23:28:00.770Z,66
2023-03-27T23:32:00.851Z,66
2023-03-27T23:36:03.261Z,66
2023-03-27T23:40:01.053Z,67
2023-03-27T23:44:00.655Z,67
2023-03-27T23:48:00.915Z,65
2023-03-27T23:52:00.851Z,65
2023-03-27T23:56:01.545Z,65
